createdAt,value
2023-03-29T00:00:38.298Z,959.6389
2023-03-29T00:02:41.472Z,959.6298
2023-03-29T00:03:43.047Z,959.6244
2023-03-29T00:04:43.004Z,959.5952
2023-03-29T00:05:43.039Z,959.5853
2023-03-29T00:06:43.049Z,959.6238
2023-03-29T00:07:44.268Z,959.6158
2023-03-29T00:08:44.394Z,959.5684
2023-03-29T00:09:45.642Z,959.6342
2023-03-29T00:10:45.732Z,959.6593
2023-03-29T00:11:46.953Z,959.6977
2023-03-29T00:12:48.283Z,959.7112
2023-03-29T00:13:49.526Z,959.7116
2023-03-29T00:14:50.929Z,959.7363
2023-03-29T00:15:52.111Z,959.7802
2023-03-29T00:16:53.690Z,959.8342
2023-03-29T00:17:55.082Z,959.8763
2023-03-29T00:18:55.172Z,959.9538
2023-03-29T00:19:56.427Z,960.0023
2023-03-29T00:20:57.813Z,959.9993
2023-03-29T00:21:59.037Z,959.9291
2023-03-29T00:22:59.476Z,959.9017
2023-03-29T00:24:00.674Z,960.0119
2023-03-29T00:25:00.714Z,959.9964
2023-03-29T00:26:02.031Z,959.9963
2023-03-29T00:27:03.565Z,959.8970
2023-03-29T00:28:04.854Z,959.8010
2023-03-29T00:29:06.219Z,959.7089
2023-03-29T00:30:07.429Z,959.6442
2023-03-29T00:31:08.898Z,959.5651
2023-03-29T00:32:10.207Z,959.5042
2023-03-29T00:33:10.357Z,959.4709
2023-03-29T00:34:11.622Z,959.4719
2023-03-29T00:35:11.631Z,959.4326
2023-03-29T00:36:12.907Z,959.3749
2023-03-29T00:37:12.974Z,959.3676
2023-03-29T00:38:14.181Z,959.3488
2023-03-29T00:39:15.492Z,959.3177
2023-03-29T00:40:16.803Z,959.2779
2023-03-29T00:41:17.186Z,959.2505
2023-03-29T00:42:18.386Z,959.2328
2023-03-29T00:43:18.479Z,959.2109
2023-03-29T00:44:19.791Z,959.2090
2023-03-29T00:45:21.228Z,959.2386
2023-03-29T00:46:22.659Z,959.2442
2023-03-29T00:47:22.957Z,959.2126
2023-03-29T00:48:24.369Z,959.2023
2023-03-29T00:49:24.369Z,959.1967
2023-03-29T00:50:25.571Z,959.1458
2023-03-29T00:51:26.956Z,959.1037
2023-03-29T00:52:28.231Z,959.1260
2023-03-29T00:53:29.679Z,959.1489
2023-03-29T00:54:30.959Z,959.1107
2023-03-29T00:55:32.392Z,959.1168
2023-03-29T00:56:32.488Z,959.1410
2023-03-29T00:57:34.012Z,959.1786
2023-03-29T00:58:35.246Z,959.1937
2023-03-29T00:59:36.724Z,959.1954
2023-03-29T01:00:38.048Z,959.1993
2023-03-29T01:01:38.179Z,959.1448
2023-03-29T01:02:38.456Z,959.1493
2023-03-29T01:03:40.163Z,959.1354
2023-03-29T01:04:41.444Z,959.1414
2023-03-29T01:05:42.750Z,959.1109
2023-03-29T01:06:43.864Z,959.1093
2023-03-29T01:07:44.524Z,959.1138
2023-03-29T01:08:45.745Z,959.0849
2023-03-29T01:09:45.852Z,959.1071
2023-03-29T01:10:47.126Z,959.1358
2023-03-29T01:11:48.483Z,959.1249
2023-03-29T01:12:49.715Z,959.0938
2023-03-29T01:13:51.205Z,959.1074
2023-03-29T01:14:52.484Z,959.1581
2023-03-29T01:15:53.932Z,959.1495
2023-03-29T01:16:55.338Z,959.1451
2023-03-29T01:17:55.683Z,959.1783
2023-03-29T01:18:55.798Z,959.1681
2023-03-29T01:29:06.493Z,958.9783
2023-03-29T01:30:07.869Z,958.9725
2023-03-29T01:31:09.164Z,958.9777
2023-03-29T01:32:09.230Z,958.9705
2023-03-29T01:33:10.549Z,958.9460
2023-03-29T01:34:11.913Z,958.9486
2023-03-29T01:35:11.990Z,958.9531
2023-03-29T01:36:13.538Z,958.9412
2023-03-29T01:37:14.756Z,958.9128
2023-03-29T01:38:16.127Z,958.8723
2023-03-29T01:39:17.396Z,958.8979
2023-03-29T01:40:18.736Z,958.9030
2023-03-29T01:41:20.038Z,958.8800
2023-03-29T01:42:21.529Z,958.8333
2023-03-29T01:43:23.553Z,958.7761
2023-03-29T01:44:23.385Z,958.7612
2023-03-29T01:45:24.715Z,958.7283
2023-03-29T01:46:24.817Z,958.6969
2023-03-29T01:47:24.892Z,958.7214
2023-03-29T01:48:26.106Z,958.7368
2023-03-29T01:49:27.413Z,958.7707
2023-03-29T01:50:28.627Z,958.7570
2023-03-29T01:51:29.950Z,958.7642
2023-03-29T01:52:31.202Z,958.7239
2023-03-29T01:53:31.245Z,958.6821
2023-03-29T01:54:32.612Z,958.6914
2023-03-29T02:04:41.706Z,958.8409
2023-03-29T02:05:41.763Z,958.8026
2023-03-29T02:06:42.986Z,958.7605
2023-03-29T02:07:44.301Z,958.7244
2023-03-29T02:08:45.526Z,958.7126
2023-03-29T02:09:45.589Z,958.7193
2023-03-29T02:10:45.714Z,958.7460
2023-03-29T02:11:47.163Z,958.7523
2023-03-29T02:12:48.534Z,958.7333
2023-03-29T02:13:48.471Z,958.7141
2023-03-29T02:14:48.550Z,958.6910
2023-03-29T02:15:50.041Z,958.6519
2023-03-29T02:16:50.082Z,958.6900
2023-03-29T02:17:51.428Z,958.6819
2023-03-29T02:18:51.702Z,958.6605
2023-03-29T02:19:53.069Z,958.6756
2023-03-29T02:20:53.159Z,958.7141
2023-03-29T02:21:53.144Z,958.6921
2023-03-29T02:22:54.438Z,958.7121
2023-03-29T02:28:59.466Z,958.6260
2023-03-29T02:29:59.500Z,958.6183
2023-03-29T02:31:01.045Z,958.5963
2023-03-29T02:32:01.704Z,958.5771
2023-03-29T02:33:01.777Z,958.5686
2023-03-29T02:34:01.870Z,958.5259
2023-03-29T02:35:01.908Z,958.4824
2023-03-29T02:36:02.023Z,958.4493
2023-03-29T02:37:02.130Z,958.4603
2023-03-29T02:38:03.530Z,958.4568
2023-03-29T02:39:03.684Z,958.4676
2023-03-29T02:40:04.986Z,958.4919
2023-03-29T02:41:06.493Z,958.5372
2023-03-29T02:42:07.785Z,958.5768
2023-03-29T02:44:09.035Z,958.5672
2023-03-29T02:45:10.376Z,958.5646
2023-03-29T02:46:10.472Z,958.5607
2023-03-29T02:47:10.558Z,958.5855
2023-03-29T02:48:10.669Z,958.6190
2023-03-29T02:49:12.038Z,958.6368
2023-03-29T02:50:13.702Z,958.6302
2023-03-29T02:51:15.916Z,958.6447
2023-03-29T02:52:15.922Z,958.6570
2023-03-29T02:53:15.955Z,958.6721
2023-03-29T02:54:17.338Z,958.6730
2023-03-29T02:55:17.423Z,958.6129
2023-03-29T02:56:18.638Z,958.5986
2023-03-29T02:57:20.221Z,958.6195
2023-03-29T02:58:20.236Z,958.6210
2023-03-29T02:59:21.580Z,958.6281
2023-03-29T03:00:21.672Z,958.6453
2023-03-29T03:01:23.092Z,958.6011
2023-03-29T03:02:23.335Z,958.5443
2023-03-29T03:03:23.954Z,958.5086
2023-03-29T03:04:24.308Z,958.4841
2023-03-29T03:05:25.614Z,958.4512
2023-03-29T03:06:25.752Z,958.4388
2023-03-29T03:07:27.024Z,958.4426
2023-03-29T03:09:29.787Z,958.4572
2023-03-29T03:11:31.124Z,958.5181
2023-03-29T03:12:31.477Z,958.5586
2023-03-29T03:13:32.753Z,958.6046
2023-03-29T03:14:33.101Z,958.6074
2023-03-29T03:15:34.401Z,958.5921
2023-03-29T03:16:34.865Z,958.5700
2023-03-29T03:17:34.856Z,958.5336
2023-03-29T03:18:36.149Z,958.5321
2023-03-29T03:19:36.286Z,958.5317
2023-03-29T03:20:37.553Z,958.4872
2023-03-29T03:21:38.538Z,958.4340
2023-03-29T03:22:39.867Z,958.4649
2023-03-29T03:23:39.981Z,958.4831
2023-03-29T03:27:42.479Z,958.6119
2023-03-29T03:28:42.539Z,958.6210
2023-03-29T03:29:43.922Z,958.5886
2023-03-29T03:30:44.086Z,958.5586
2023-03-29T03:31:44.191Z,958.5276
2023-03-29T03:32:44.304Z,958.5238
2023-03-29T03:33:45.638Z,958.5089
2023-03-29T03:34:47.182Z,958.4960
2023-03-29T03:35:48.512Z,958.4677
2023-03-29T03:36:48.633Z,958.4350
2023-03-29T03:37:49.942Z,958.4137
2023-03-29T03:38:51.442Z,958.3868
2023-03-29T03:39:52.731Z,958.4053
2023-03-29T03:41:55.400Z,958.5402
2023-03-29T03:42:55.759Z,958.4986
2023-03-29T03:43:56.277Z,958.5267
2023-03-29T03:44:56.324Z,958.5090
2023-03-29T03:45:56.586Z,958.4333
2023-03-29T03:46:57.090Z,958.4437
2023-03-29T03:47:57.200Z,958.4147
2023-03-29T03:48:57.383Z,958.3862
2023-03-29T03:49:57.417Z,958.4467
2023-03-29T03:50:57.441Z,958.4534
2023-03-29T03:51:58.788Z,958.3700
2023-03-29T03:52:58.928Z,958.4243
2023-03-29T03:54:00.250Z,958.4593
2023-03-29T03:55:01.789Z,958.3876
2023-03-29T03:56:03.148Z,958.4079
2023-03-29T03:57:04.825Z,958.4514
2023-03-29T03:58:06.109Z,958.3984
2023-03-29T03:59:06.341Z,958.4450
2023-03-29T04:00:07.692Z,958.4388
2023-03-29T04:01:07.680Z,958.4233
2023-03-29T04:02:07.824Z,958.5071
2023-03-29T04:03:08.093Z,958.5019
2023-03-29T04:04:09.167Z,958.5443
2023-03-29T04:05:09.459Z,958.5507
2023-03-29T04:06:09.495Z,958.4852
2023-03-29T04:07:10.744Z,958.4277
2023-03-29T04:08:12.158Z,958.5497
2023-03-29T04:09:13.480Z,958.5640
2023-03-29T04:10:13.640Z,958.4924
2023-03-29T04:11:14.909Z,958.4237
2023-03-29T04:12:15.031Z,958.3752
2023-03-29T04:13:16.337Z,958.4144
2023-03-29T04:14:17.840Z,958.5016
2023-03-29T04:15:17.855Z,958.4969
2023-03-29T04:16:18.067Z,958.4943
2023-03-29T04:17:18.189Z,958.5164
2023-03-29T04:18:18.770Z,958.5040
2023-03-29T04:19:20.085Z,958.5496
2023-03-29T04:20:20.389Z,958.4612
2023-03-29T04:21:21.659Z,958.4811
2023-03-29T04:22:21.915Z,958.5029
2023-03-29T04:34:35.111Z,958.4079
2023-03-29T04:35:35.523Z,958.3455
2023-03-29T04:36:36.744Z,958.3300
2023-03-29T04:37:38.372Z,958.3086
2023-03-29T04:38:38.367Z,958.2631
2023-03-29T04:39:38.593Z,958.2947
2023-03-29T04:40:38.681Z,958.3615
2023-03-29T04:41:40.040Z,958.3556
2023-03-29T04:42:40.082Z,958.3962
2023-03-29T04:43:41.452Z,958.3900
2023-03-29T04:44:42.981Z,958.3372
2023-03-29T04:45:43.017Z,958.3441
2023-03-29T04:46:43.247Z,958.2881
2023-03-29T04:47:43.281Z,958.2974
2023-03-29T04:48:43.308Z,958.2548
2023-03-29T04:49:43.433Z,958.2957
2023-03-29T04:50:44.674Z,958.3251
2023-03-29T04:51:44.998Z,958.3716
2023-03-29T04:52:46.546Z,958.3412
2023-03-29T04:53:46.669Z,958.2855
2023-03-29T04:54:47.978Z,958.2698
2023-03-29T04:55:48.089Z,958.2683
2023-03-29T04:56:49.431Z,958.2377
2023-03-29T04:57:49.512Z,958.2424
2023-03-29T04:58:50.772Z,958.3035
2023-03-29T04:59:52.113Z,958.3528
2023-03-29T05:00:52.280Z,958.3427
2023-03-29T05:01:52.348Z,958.3407
2023-03-29T05:02:52.650Z,958.2891
2023-03-29T05:03:52.761Z,958.3378
2023-03-29T05:04:53.157Z,958.4343
2023-03-29T05:05:53.240Z,958.4752
2023-03-29T05:06:53.422Z,958.4626
2023-03-29T05:07:54.833Z,958.4960
2023-03-29T05:08:55.226Z,958.3505
2023-03-29T05:09:55.460Z,958.2247
2023-03-29T05:10:55.773Z,958.2788
2023-03-29T05:11:55.983Z,958.1869
2023-03-29T05:12:56.097Z,958.1319
2023-03-29T05:13:56.218Z,958.0598
2023-03-29T05:14:56.463Z,958.0126
2023-03-29T05:15:57.360Z,958.0002
2023-03-29T05:16:57.594Z,957.9729
2023-03-29T05:17:58.186Z,958.0345
2023-03-29T05:18:58.585Z,958.1488
2023-03-29T05:19:59.171Z,958.2093
2023-03-29T05:20:59.878Z,958.1593
2023-03-29T05:22:00.594Z,958.1743
2023-03-29T05:23:00.642Z,958.1948
2023-03-29T05:24:01.941Z,958.1900
2023-03-29T05:25:02.110Z,958.2531
2023-03-29T05:26:03.451Z,958.2689
2023-03-29T05:27:03.610Z,958.3433
2023-03-29T05:28:03.679Z,958.3721
2023-03-29T05:29:03.640Z,958.3995
2023-03-29T05:30:03.777Z,958.4050
2023-03-29T05:31:04.273Z,958.3929
2023-03-29T05:32:04.853Z,958.4369
2023-03-29T05:33:04.885Z,958.4633
2023-03-29T05:34:06.363Z,958.4763
2023-03-29T05:35:06.472Z,958.4855
2023-03-29T05:36:06.823Z,958.5150
2023-03-29T05:37:07.086Z,958.4648
2023-03-29T05:38:07.248Z,958.4321
2023-03-29T05:39:07.323Z,958.4050
2023-03-29T05:40:08.127Z,958.4110
2023-03-29T05:41:09.284Z,958.4224
2023-03-29T05:42:09.579Z,958.4607
2023-03-29T05:43:09.458Z,958.4534
2023-03-29T05:44:09.624Z,958.4655
2023-03-29T05:46:10.862Z,958.4612
2023-03-29T05:47:11.214Z,958.4331
2023-03-29T05:48:11.290Z,958.4290
2023-03-29T05:49:11.546Z,958.4033
2023-03-29T05:50:11.678Z,958.3750
2023-03-29T05:51:12.552Z,958.3519
2023-03-29T05:52:12.717Z,958.3329
2023-03-29T05:53:12.874Z,958.3124
2023-03-29T05:54:14.248Z,958.3054
2023-03-29T05:55:14.381Z,958.2814
2023-03-29T05:56:14.494Z,958.2638
2023-03-29T05:57:14.706Z,958.2650
2023-03-29T05:58:14.870Z,958.2607
2023-03-29T05:59:15.033Z,958.2524
2023-03-29T06:00:15.058Z,958.2564
2023-03-29T06:01:15.810Z,958.2653
2023-03-29T06:02:15.952Z,958.2436
2023-03-29T06:03:22.553Z,958.2886
2023-03-29T06:04:23.155Z,958.2905
2023-03-29T06:05:23.331Z,958.3355
2023-03-29T06:06:24.783Z,958.3560
2023-03-29T06:07:24.939Z,958.3726
2023-03-29T06:08:25.071Z,958.4188
2023-03-29T06:09:25.355Z,958.4369
2023-03-29T06:16:29.731Z,958.4202
2023-03-29T06:17:30.226Z,958.4009
2023-03-29T06:18:30.814Z,958.3934
2023-03-29T06:19:30.843Z,958.4200
2023-03-29T06:20:30.931Z,958.4534
2023-03-29T06:21:31.127Z,958.4695
2023-03-29T06:22:32.498Z,958.4916
2023-03-29T06:23:32.572Z,958.5000
2023-03-29T06:24:33.023Z,958.4507
2023-03-29T06:25:34.114Z,958.4352
2023-03-29T06:26:34.399Z,958.4604
2023-03-29T06:27:34.497Z,958.4919
2023-03-29T06:28:34.540Z,958.5305
2023-03-29T06:29:34.786Z,958.5157
2023-03-29T06:30:35.747Z,958.4805
2023-03-29T06:31:36.531Z,958.4673
2023-03-29T06:32:36.874Z,958.4455
2023-03-29T06:33:37.047Z,958.4164
2023-03-29T06:34:38.576Z,958.4398
2023-03-29T06:35:37.599Z,958.4464
2023-03-29T06:36:37.692Z,958.4286
2023-03-29T06:37:37.910Z,958.3845
2023-03-29T06:38:37.927Z,958.3788
2023-03-29T06:39:38.173Z,958.3957
2023-03-29T06:40:38.203Z,958.4266
2023-03-29T06:41:38.231Z,958.4226
2023-03-29T06:42:38.379Z,958.4557
2023-03-29T06:43:38.393Z,958.4741
2023-03-29T06:44:38.414Z,958.4900
2023-03-29T06:45:38.668Z,958.5148
2023-03-29T06:46:39.019Z,958.5317
2023-03-29T06:47:39.086Z,958.5433
2023-03-29T06:48:39.362Z,958.5367
2023-03-29T06:49:39.387Z,958.5602
2023-03-29T06:50:39.493Z,958.5850
2023-03-29T06:51:39.532Z,958.5924
2023-03-29T06:52:39.731Z,958.5590
2023-03-29T06:53:41.104Z,958.5609
2023-03-29T06:54:41.260Z,958.5460
2023-03-29T06:55:41.661Z,958.5374
2023-03-29T06:56:43.121Z,958.5384
2023-03-29T06:57:43.635Z,958.5557
2023-03-29T06:58:43.681Z,958.5978
2023-03-29T06:59:43.955Z,958.6271
2023-03-29T07:00:44.403Z,958.6145
2023-03-29T07:01:44.854Z,958.5776
2023-03-29T07:02:44.906Z,958.5372
2023-03-29T07:03:46.732Z,958.5729
2023-03-29T07:04:47.149Z,958.5967
2023-03-29T07:05:47.428Z,958.6250
2023-03-29T07:06:47.476Z,958.6495
2023-03-29T07:07:47.764Z,958.6481
2023-03-29T07:08:47.956Z,958.6007
2023-03-29T07:09:48.006Z,958.6036
2023-03-29T07:10:48.121Z,958.6319
2023-03-29T07:11:48.332Z,958.6321
2023-03-29T07:12:48.516Z,958.6214
2023-03-29T07:13:49.043Z,958.6350
2023-03-29T07:14:49.124Z,958.6519
2023-03-29T07:15:49.242Z,958.7019
2023-03-29T07:16:49.326Z,958.7129
2023-03-29T07:17:49.548Z,958.6869
2023-03-29T07:18:49.565Z,958.6884
2023-03-29T07:19:49.636Z,958.6917
2023-03-29T07:20:49.815Z,958.6474
2023-03-29T07:21:49.852Z,958.6042
2023-03-29T07:22:49.862Z,958.6226
2023-03-29T07:23:50.079Z,958.5974
2023-03-29T07:24:50.085Z,958.6145
2023-03-29T07:25:50.114Z,958.6083
2023-03-29T07:27:03.261Z,958.6171
2023-03-29T07:27:50.684Z,958.6300
2023-03-29T07:28:50.730Z,958.6379
2023-03-29T07:29:50.877Z,958.6519
2023-03-29T07:30:51.569Z,958.7339
2023-03-29T07:31:51.778Z,958.7952
2023-03-29T07:32:52.234Z,958.7936
2023-03-29T07:33:53.332Z,958.8043
2023-03-29T07:34:53.446Z,958.8464
2023-03-29T07:35:53.518Z,958.8714
2023-03-29T07:36:53.781Z,958.8874
2023-03-29T07:37:53.781Z,958.9321
2023-03-29T07:38:56.301Z,958.9636
2023-03-29T07:39:55.289Z,958.9653
2023-03-29T07:40:55.504Z,958.9631
2023-03-29T07:41:55.532Z,958.9816
2023-03-29T07:42:55.561Z,958.9762
2023-03-29T07:43:55.718Z,958.9683
2023-03-29T07:44:55.734Z,958.9607
2023-03-29T07:45:55.989Z,958.9598
2023-03-29T07:46:56.170Z,958.9183
2023-03-29T07:47:56.478Z,958.9048
2023-03-29T07:48:56.658Z,958.9314
2023-03-29T07:49:57.000Z,958.9534
2023-03-29T07:50:57.082Z,958.9252
2023-03-29T07:51:57.848Z,958.9091
2023-03-29T07:52:58.126Z,958.9526
2023-03-29T07:53:58.255Z,958.9567
2023-03-29T07:54:58.495Z,958.9462
2023-03-29T07:55:58.590Z,958.8745
2023-03-29T07:56:58.826Z,958.8452
2023-03-29T07:57:59.167Z,958.8409
2023-03-29T07:58:59.321Z,958.8457
2023-03-29T07:59:59.548Z,958.8198
2023-03-29T08:00:59.772Z,958.8307
2023-03-29T08:02:00.918Z,958.8322
2023-03-29T08:03:01.040Z,958.8378
2023-03-29T08:04:01.414Z,958.8652
2023-03-29T08:05:01.983Z,958.8519
2023-03-29T08:06:02.585Z,958.8729
2023-03-29T08:07:02.730Z,958.9164
2023-03-29T08:08:02.830Z,958.9352
2023-03-29T08:09:03.122Z,958.9166
2023-03-29T08:10:03.314Z,958.9402
2023-03-29T08:11:03.687Z,958.9781
2023-03-29T08:12:04.020Z,958.9905
2023-03-29T08:13:04.089Z,959.0581
2023-03-29T08:14:04.248Z,959.1224
2023-03-29T08:15:04.432Z,959.1526
2023-03-29T08:16:04.842Z,959.1512
2023-03-29T08:17:05.130Z,959.1645
2023-03-29T08:18:05.904Z,959.1550
2023-03-29T08:19:06.711Z,959.1367
2023-03-29T08:20:07.307Z,959.1295
2023-03-29T08:21:07.901Z,959.1331
2023-03-29T08:22:07.924Z,959.1293
2023-03-29T08:23:08.234Z,959.1331
2023-03-29T08:24:08.507Z,959.1364
2023-03-29T08:25:09.779Z,959.1534
2023-03-29T08:26:09.924Z,959.1588
2023-03-29T08:27:10.251Z,959.1609
2023-03-29T08:28:10.387Z,959.1902
2023-03-29T08:29:10.485Z,959.1888
2023-03-29T08:30:10.742Z,959.1736
2023-03-29T08:31:11.417Z,959.1683
2023-03-29T08:32:11.654Z,959.1555
2023-03-29T08:33:12.058Z,959.1733
2023-03-29T08:34:12.501Z,959.1621
2023-03-29T08:35:12.715Z,959.1384
2023-03-29T08:36:13.044Z,959.1424
2023-03-29T08:37:13.140Z,959.1319
2023-03-29T08:38:13.333Z,959.0917
2023-03-29T08:39:13.646Z,959.0748
2023-03-29T08:40:13.712Z,959.0455
2023-03-29T08:41:14.553Z,959.0583
2023-03-29T08:42:14.585Z,959.0428
2023-03-29T08:43:14.662Z,959.0021
2023-03-29T08:44:14.938Z,959.0064
2023-03-29T08:45:15.006Z,959.0493
2023-03-29T08:46:15.317Z,959.0255
2023-03-29T08:47:16.202Z,959.0507
2023-03-29T08:48:16.663Z,959.0831
2023-03-29T08:49:16.830Z,959.0547
2023-03-29T08:50:16.952Z,959.0924
2023-03-29T08:51:18.016Z,959.0957
2023-03-29T08:52:18.174Z,959.1284
2023-03-29T08:53:19.409Z,959.1145
2023-03-29T08:54:19.569Z,959.1462
2023-03-29T08:55:19.904Z,959.1317
2023-03-29T08:56:20.051Z,959.1385
2023-03-29T08:57:20.710Z,959.1305
2023-03-29T08:58:20.860Z,959.1502
2023-03-29T08:59:21.318Z,959.1583
2023-03-29T09:00:21.406Z,959.1636
2023-03-29T09:01:21.521Z,959.1586
2023-03-29T09:02:21.979Z,959.1788
2023-03-29T09:03:22.492Z,959.1678
2023-03-29T09:04:22.781Z,959.1743
2023-03-29T09:05:22.947Z,959.1802
2023-03-29T09:06:23.212Z,959.1912
2023-03-29T09:07:26.463Z,959.1529
2023-03-29T09:08:24.041Z,959.1320
2023-03-29T09:09:25.004Z,959.1257
2023-03-29T09:10:25.210Z,959.1174
2023-03-29T09:11:25.512Z,959.1021
2023-03-29T09:12:25.612Z,959.0967
2023-03-29T09:13:25.935Z,959.0912
2023-03-29T09:14:26.091Z,959.0560
2023-03-29T09:15:26.395Z,959.0662
2023-03-29T09:16:26.486Z,959.0724
2023-03-29T09:17:27.128Z,959.0662
2023-03-29T09:18:27.464Z,959.0438
2023-03-29T09:19:27.659Z,959.0253
2023-03-29T09:20:28.010Z,959.0336
2023-03-29T09:21:28.217Z,959.0155
2023-03-29T09:22:28.297Z,958.9678
2023-03-29T09:23:28.542Z,958.9681
2023-03-29T09:24:28.881Z,958.9776
2023-03-29T09:25:29.094Z,958.9310
2023-03-29T09:26:29.490Z,958.9542
2023-03-29T09:27:29.750Z,958.9731
2023-03-29T09:28:29.907Z,958.9590
2023-03-29T09:29:31.238Z,958.9542
2023-03-29T09:30:31.372Z,958.9509
2023-03-29T09:31:31.817Z,958.9669
2023-03-29T09:32:31.961Z,958.9607
2023-03-29T09:33:32.216Z,958.9400
2023-03-29T09:34:32.324Z,958.9033
2023-03-29T09:35:32.463Z,958.9121
2023-03-29T09:36:32.758Z,958.9207
2023-03-29T09:37:32.869Z,958.9262
2023-03-29T09:38:33.221Z,958.9407
2023-03-29T09:39:33.237Z,958.9216
2023-03-29T09:40:33.359Z,958.9147
2023-03-29T09:41:33.603Z,958.9200
2023-03-29T09:42:33.717Z,958.9205
2023-03-29T09:43:33.768Z,958.9617
2023-03-29T09:44:33.976Z,958.9879
2023-03-29T09:45:34.121Z,959.0031
2023-03-29T09:46:34.520Z,958.9797
2023-03-29T09:47:34.658Z,958.9355
2023-03-29T09:48:35.251Z,958.9105
2023-03-29T09:49:35.356Z,958.8914
2023-03-29T09:50:35.918Z,958.8932
2023-03-29T09:51:36.007Z,958.9376
2023-03-29T09:52:36.315Z,958.9360
2023-03-29T09:53:36.485Z,958.9207
2023-03-29T09:54:36.809Z,958.8910
2023-03-29T09:55:37.073Z,958.8817
2023-03-29T09:56:37.338Z,958.8517
2023-03-29T09:57:37.525Z,958.8641
2023-03-29T09:58:37.894Z,958.8876
2023-03-29T09:59:38.017Z,958.8560
2023-03-29T10:00:38.141Z,958.8566
2023-03-29T10:01:38.794Z,958.8595
2023-03-29T10:02:39.302Z,958.8776
2023-03-29T10:03:39.529Z,958.8869
2023-03-29T10:04:39.994Z,958.8555
2023-03-29T10:05:40.122Z,958.8155
2023-03-29T10:06:40.214Z,958.8702
2023-03-29T10:07:40.434Z,958.8388
2023-03-29T10:08:41.838Z,958.8114
2023-03-29T10:09:42.152Z,958.8364
2023-03-29T10:10:42.567Z,958.8552
2023-03-29T10:11:42.893Z,958.8443
2023-03-29T10:12:43.265Z,958.8517
2023-03-29T10:13:43.366Z,958.8855
2023-03-29T10:14:43.532Z,958.8374
2023-03-29T10:15:44.550Z,958.8716
2023-03-29T10:16:44.775Z,958.8869
2023-03-29T10:17:45.143Z,958.8790
2023-03-29T10:18:45.370Z,958.8948
2023-03-29T10:19:45.650Z,958.8805
2023-03-29T10:20:45.854Z,958.8886
2023-03-29T10:21:46.156Z,958.8995
2023-03-29T10:22:46.300Z,958.9028
2023-03-29T10:23:46.763Z,958.9100
2023-03-29T10:24:46.862Z,958.9300
2023-03-29T10:25:47.135Z,958.9219
2023-03-29T10:26:47.320Z,958.9336
2023-03-29T10:27:47.827Z,958.9197
2023-03-29T10:28:48.049Z,958.8805
2023-03-29T10:29:48.413Z,958.8383
2023-03-29T10:30:48.690Z,958.8224
2023-03-29T10:31:49.257Z,958.7969
2023-03-29T10:32:49.804Z,958.7655
2023-03-29T10:33:50.038Z,958.7545
2023-03-29T10:34:50.515Z,958.7457
2023-03-29T10:35:50.738Z,958.7584
2023-03-29T10:36:51.103Z,958.7802
2023-03-29T10:37:51.581Z,958.7588
2023-03-29T10:38:52.004Z,958.7374
2023-03-29T10:39:52.292Z,958.7164
2023-03-29T10:40:52.723Z,958.7107
2023-03-29T10:41:53.114Z,958.6912
2023-03-29T10:42:53.226Z,958.6705
2023-03-29T10:43:54.376Z,958.6821
2023-03-29T10:44:54.835Z,958.6379
2023-03-29T10:45:55.522Z,958.5862
2023-03-29T10:46:56.782Z,958.5876
2023-03-29T10:47:57.117Z,958.6298
2023-03-29T10:48:57.520Z,958.6395
2023-03-29T10:49:58.652Z,958.5905
2023-03-29T10:50:59.032Z,958.5812
2023-03-29T10:51:59.219Z,958.6005
2023-03-29T10:52:59.806Z,958.6114
2023-03-29T10:54:00.048Z,958.5779
2023-03-29T10:55:00.563Z,958.5319
2023-03-29T10:56:00.757Z,958.5660
2023-03-29T10:57:01.139Z,958.5936
2023-03-29T10:58:01.588Z,958.5862
2023-03-29T10:59:01.811Z,958.5634
2023-03-29T11:00:02.265Z,958.5931
2023-03-29T11:01:02.778Z,958.5819
2023-03-29T11:02:03.539Z,958.5371
2023-03-29T11:03:04.236Z,958.5650
2023-03-29T11:04:05.488Z,958.4910
2023-03-29T11:05:06.067Z,958.4686
2023-03-29T11:06:06.441Z,958.4719
2023-03-29T11:07:06.858Z,958.4752
2023-03-29T11:08:07.086Z,958.4631
2023-03-29T11:09:07.440Z,958.4488
2023-03-29T11:10:07.870Z,958.3945
2023-03-29T11:11:08.348Z,958.3755
2023-03-29T11:12:15.583Z,958.3884
2023-03-29T11:13:09.668Z,958.3681
2023-03-29T11:14:10.476Z,958.3405
2023-03-29T11:15:10.662Z,958.3402
2023-03-29T11:16:11.089Z,958.3024
2023-03-29T11:17:11.330Z,958.2960
2023-03-29T11:18:11.722Z,958.2388
2023-03-29T11:19:12.106Z,958.2297
2023-03-29T11:20:12.530Z,958.2526
2023-03-29T11:21:12.928Z,958.2288
2023-03-29T11:22:13.101Z,958.2388
2023-03-29T11:23:13.506Z,958.2393
2023-03-29T11:24:13.708Z,958.2138
2023-03-29T11:25:14.124Z,958.1795
2023-03-29T11:26:14.490Z,958.1995
2023-03-29T11:27:14.704Z,958.1907
2023-03-29T11:28:15.133Z,958.1717
2023-03-29T11:29:15.289Z,958.1207
2023-03-29T11:30:15.950Z,958.1224
2023-03-29T11:31:16.793Z,958.1573
2023-03-29T11:32:17.112Z,958.1464
2023-03-29T11:33:18.039Z,958.0938
2023-03-29T11:34:18.301Z,958.1143
2023-03-29T11:35:18.678Z,958.1202
2023-03-29T11:36:19.200Z,958.1541
2023-03-29T11:37:19.416Z,958.1412
2023-03-29T11:38:19.940Z,958.1284
2023-03-29T11:39:20.404Z,958.1134
2023-03-29T11:40:20.691Z,958.1057
2023-03-29T11:41:21.109Z,958.0872
2023-03-29T11:42:21.317Z,958.1216
2023-03-29T11:43:21.629Z,958.0660
2023-03-29T11:44:22.008Z,958.0317
2023-03-29T11:45:22.255Z,958.0362
2023-03-29T11:46:22.847Z,958.0383
2023-03-29T11:47:23.511Z,958.0714
2023-03-29T11:48:24.112Z,958.0562
2023-03-29T11:49:24.546Z,958.0231
2023-03-29T11:50:25.975Z,957.9960
2023-03-29T11:51:26.154Z,957.9603
2023-03-29T11:52:26.509Z,957.9788
2023-03-29T11:53:26.769Z,957.9860
2023-03-29T11:54:27.164Z,958.0024
2023-03-29T11:55:27.979Z,958.0050
2023-03-29T11:56:28.253Z,957.9986
2023-03-29T11:57:28.809Z,958.0060
2023-03-29T11:58:29.373Z,957.9707
2023-03-29T11:59:29.667Z,958.0045
2023-03-29T12:00:30.039Z,957.9807
2023-03-29T12:01:30.484Z,957.9871
2023-03-29T12:02:31.249Z,957.9914
2023-03-29T12:03:31.911Z,957.9781
2023-03-29T12:04:33.120Z,957.9543
2023-03-29T12:05:33.531Z,957.9324
2023-03-29T12:06:33.786Z,957.8924
2023-03-29T12:07:34.205Z,957.9131
2023-03-29T12:08:34.539Z,957.8979
2023-03-29T12:09:34.731Z,957.8860
2023-03-29T12:10:35.177Z,957.9174
2023-03-29T12:11:35.352Z,957.9448
2023-03-29T12:12:36.280Z,957.9421
2023-03-29T12:13:36.669Z,957.9407
2023-03-29T12:14:37.348Z,957.9550
2023-03-29T12:15:37.791Z,957.9014
2023-03-29T12:16:38.104Z,957.8924
2023-03-29T12:17:38.739Z,957.9022
2023-03-29T12:18:39.691Z,957.9238
2023-03-29T12:19:42.658Z,957.9126
2023-03-29T12:20:41.183Z,957.9015
2023-03-29T12:21:42.065Z,957.8657
2023-03-29T12:22:42.531Z,957.7947
2023-03-29T12:23:42.711Z,957.8486
2023-03-29T12:24:43.064Z,957.8395
2023-03-29T12:25:43.669Z,957.8320
2023-03-29T12:26:43.927Z,957.8226
2023-03-29T12:27:44.286Z,957.8224
2023-03-29T12:28:44.651Z,957.8445
2023-03-29T12:29:44.954Z,957.8557
2023-03-29T12:30:45.358Z,957.8309
2023-03-29T12:31:45.868Z,957.8414
2023-03-29T12:32:46.473Z,957.8519
2023-03-29T12:33:46.883Z,957.8114
2023-03-29T12:34:47.226Z,957.8293
2023-03-29T12:35:47.535Z,957.7979
2023-03-29T12:36:47.902Z,957.7598
2023-03-29T12:37:48.140Z,957.7167
2023-03-29T12:38:48.486Z,957.7036
2023-03-29T12:39:48.898Z,957.7043
2023-03-29T12:40:49.260Z,957.6795